EJA347 KFCM-KCQW
Flight info
| Callsign | EJA347 |
|---|---|
| Flight time | 2h 20m |
| Altitude | 41000 |
| Route | RST1 RST SUZYQ J90 OBK J89 IIU J99 VXV SPA |
| Aircraft | C25C/M-VGDW/C |
Departure
| Time | 2026-04-21 23:01 |
|---|---|
| Airport | Flying Cloud Airport (KFCM) |
Arrival
| Time | 2026-04-22 01:21 |
|---|---|
| Airport | Cheraw Municipal Airport/Lynch Bellinger Field (KCQW) |
| Time | Latitude | Longitude | Altitude | Speed | Heading |
|---|---|---|---|---|---|
| 2026-04-21 22:39 | 44.83042 | -93.46283 | 907 ft | 0 kts | 292° |
| 2026-04-21 22:52 | 44.83041 | -93.46281 | 907 ft | 2 kts | 292° |
| 2026-04-21 22:53 | 44.83042 | -93.46260 | 907 ft | 2 kts | 208° |
| 2026-04-21 22:53 | 44.83046 | -93.46258 | 907 ft | 0 kts | 194° |
| 2026-04-21 22:54 | 44.83045 | -93.46259 | 907 ft | 1 kts | 206° |
| 2026-04-21 22:54 | 44.83030 | -93.46269 | 908 ft | 5 kts | 188° |
| 2026-04-21 22:54 | 44.83000 | -93.46232 | 909 ft | 8 kts | 104° |
| 2026-04-21 22:54 | 44.82986 | -93.46137 | 910 ft | 11 kts | 101° |
| 2026-04-21 22:55 | 44.82969 | -93.46018 | 909 ft | 14 kts | 101° |
| 2026-04-21 22:55 | 44.82949 | -93.45878 | 907 ft | 14 kts | 102° |
| 2026-04-21 22:55 | 44.82932 | -93.45757 | 906 ft | 12 kts | 101° |
| 2026-04-21 22:55 | 44.82919 | -93.45650 | 904 ft | 11 kts | 100° |
| 2026-04-21 22:56 | 44.82910 | -93.45548 | 902 ft | 10 kts | 81° |
| 2026-04-21 22:56 | 44.82913 | -93.45498 | 901 ft | 0 kts | 94° |
| 2026-04-21 22:56 | 44.82908 | -93.45456 | 900 ft | 9 kts | 102° |
| 2026-04-21 22:57 | 44.82894 | -93.45351 | 900 ft | 12 kts | 108° |
| 2026-04-21 22:57 | 44.82863 | -93.45253 | 899 ft | 11 kts | 101° |
| 2026-04-21 22:57 | 44.82849 | -93.45155 | 897 ft | 9 kts | 116° |
| 2026-04-21 22:57 | 44.82824 | -93.45140 | 896 ft | 0 kts | 186° |
| 2026-04-21 22:58 | 44.82823 | -93.45140 | 896 ft | 0 kts | 186° |
| 2026-04-21 22:58 | 44.82799 | -93.45145 | 896 ft | 8 kts | 190° |
| 2026-04-21 22:58 | 44.82730 | -93.45165 | 898 ft | 9 kts | 191° |
| 2026-04-21 22:59 | 44.82722 | -93.45167 | 898 ft | 0 kts | 191° |
| 2026-04-21 23:00 | 44.82721 | -93.45167 | 898 ft | 2 kts | 191° |
| 2026-04-21 23:00 | 44.82671 | -93.45182 | 898 ft | 11 kts | 191° |
| 2026-04-21 23:00 | 44.82657 | -93.45284 | 898 ft | 33 kts | 280° |
| 2026-04-21 23:00 | 44.82777 | -93.46134 | 925 ft | 138 kts | 282° |
| 2026-04-21 23:01 | 44.83014 | -93.47761 | 1583 ft | 198 kts | 279° |
| 2026-04-21 23:01 | 44.83340 | -93.49902 | 2586 ft | 242 kts | 276° |
| 2026-04-21 23:01 | 44.83287 | -93.52277 | 3615 ft | 245 kts | 253° |
| 2026-04-21 23:01 | 44.82921 | -93.54561 | 4666 ft | 232 kts | 245° |
| 2026-04-21 23:02 | 44.81834 | -93.56100 | 5665 ft | 233 kts | 207° |
| 2026-04-21 23:02 | 44.80203 | -93.56229 | 6597 ft | 250 kts | 173° |
| 2026-04-21 23:02 | 44.78618 | -93.54893 | 7006 ft | 291 kts | 139° |
| 2026-04-21 23:02 | 44.77445 | -93.52561 | 7022 ft | 289 kts | 124° |
| 2026-04-21 23:03 | 44.76459 | -93.50137 | 7013 ft | 282 kts | 122° |
| 2026-04-21 23:03 | 44.75542 | -93.47744 | 7016 ft | 275 kts | 121° |
| 2026-04-21 23:03 | 44.74640 | -93.45369 | 7058 ft | 280 kts | 121° |
| 2026-04-21 23:03 | 44.73676 | -93.42848 | 7834 ft | 295 kts | 121° |
| 2026-04-21 23:04 | 44.72692 | -93.40281 | 9166 ft | 302 kts | 120° |
| 2026-04-21 23:04 | 44.71668 | -93.37656 | 10548 ft | 311 kts | 121° |
| 2026-04-21 23:04 | 44.70607 | -93.34975 | 11907 ft | 317 kts | 121° |
| 2026-04-21 23:04 | 44.69512 | -93.32254 | 13262 ft | 323 kts | 121° |
| 2026-04-21 23:05 | 44.68386 | -93.29484 | 14488 ft | 330 kts | 121° |
| 2026-04-21 23:05 | 44.67228 | -93.26646 | 15623 ft | 338 kts | 121° |
| 2026-04-21 23:05 | 44.66042 | -93.23738 | 16700 ft | 347 kts | 121° |
| 2026-04-21 23:05 | 44.64804 | -93.20787 | 17775 ft | 354 kts | 124° |
| 2026-04-21 23:06 | 44.63228 | -93.18117 | 18748 ft | 356 kts | 146° |
| 2026-04-21 23:06 | 44.61078 | -93.16483 | 19699 ft | 353 kts | 163° |
| 2026-04-21 23:06 | 44.58796 | -93.15124 | 20676 ft | 358 kts | 164° |
| 2026-04-21 23:06 | 44.56487 | -93.13693 | 21627 ft | 367 kts | 160° |
| 2026-04-21 23:07 | 44.54195 | -93.12023 | 22563 ft | 375 kts | 158° |
| 2026-04-21 23:07 | 44.51898 | -93.10339 | 23482 ft | 380 kts | 159° |
| 2026-04-21 23:07 | 44.49508 | -93.08683 | 24246 ft | 386 kts | 160° |
| 2026-04-21 23:07 | 44.47073 | -93.07023 | 24964 ft | 393 kts | 160° |
| 2026-04-21 23:08 | 44.44603 | -93.05303 | 25685 ft | 399 kts | 159° |
| 2026-04-21 23:08 | 44.42099 | -93.03547 | 26399 ft | 405 kts | 159° |
| 2026-04-21 23:08 | 44.39549 | -93.01769 | 27100 ft | 411 kts | 159° |
| 2026-04-21 23:08 | 44.36964 | -92.99980 | 27790 ft | 418 kts | 158° |
| 2026-04-21 23:09 | 44.34341 | -92.98161 | 28456 ft | 423 kts | 158° |
| 2026-04-21 23:09 | 44.31701 | -92.96328 | 29279 ft | 425 kts | 158° |
| 2026-04-21 23:09 | 44.29049 | -92.94489 | 30107 ft | 425 kts | 158° |
| 2026-04-21 23:09 | 44.26391 | -92.92650 | 30827 ft | 425 kts | 158° |
| 2026-04-21 23:10 | 44.23737 | -92.90819 | 31540 ft | 425 kts | 158° |
| 2026-04-21 23:10 | 44.21084 | -92.88984 | 32245 ft | 425 kts | 158° |
| 2026-04-21 23:10 | 44.18467 | -92.87176 | 32921 ft | 424 kts | 158° |
| 2026-04-21 23:10 | 44.15819 | -92.85353 | 33603 ft | 424 kts | 158° |
| 2026-04-21 23:11 | 44.13172 | -92.83529 | 34215 ft | 423 kts | 158° |
| 2026-04-21 23:11 | 44.10530 | -92.81711 | 34809 ft | 422 kts | 158° |
| 2026-04-21 23:11 | 44.07899 | -92.79905 | 35399 ft | 421 kts | 158° |
| 2026-04-21 23:11 | 44.05280 | -92.78108 | 35989 ft | 419 kts | 158° |
| 2026-04-21 23:12 | 44.02669 | -92.76320 | 36563 ft | 418 kts | 158° |
| 2026-04-21 23:12 | 44.00063 | -92.74536 | 37135 ft | 416 kts | 158° |
| 2026-04-21 23:12 | 43.97465 | -92.72757 | 37709 ft | 415 kts | 158° |
| 2026-04-21 23:12 | 43.94876 | -92.70989 | 38280 ft | 414 kts | 158° |
| 2026-04-21 23:13 | 43.92296 | -92.69228 | 38785 ft | 413 kts | 158° |
| 2026-04-21 23:13 | 43.89722 | -92.67472 | 39230 ft | 412 kts | 158° |
| 2026-04-21 23:13 | 43.87180 | -92.65741 | 39683 ft | 410 kts | 158° |
| 2026-04-21 23:13 | 43.84621 | -92.63999 | 40143 ft | 409 kts | 158° |
| 2026-04-21 23:14 | 43.82076 | -92.62266 | 40427 ft | 407 kts | 158° |
| 2026-04-21 23:14 | 43.79531 | -92.60540 | 40544 ft | 406 kts | 158° |
| 2026-04-21 23:14 | 43.76977 | -92.58958 | 40776 ft | 399 kts | 163° |
| 2026-04-21 23:14 | 43.74392 | -92.57539 | 40860 ft | 400 kts | 162° |
| 2026-04-21 23:15 | 43.69199 | -92.54630 | 40918 ft | 405 kts | 162° |
| 2026-04-21 23:15 | 43.63929 | -92.51713 | 40909 ft | 411 kts | 162° |
| 2026-04-21 23:16 | 43.58587 | -92.48748 | 40915 ft | 416 kts | 162° |
| 2026-04-21 23:16 | 43.53169 | -92.45753 | 40921 ft | 421 kts | 162° |
| 2026-04-21 23:17 | 43.47696 | -92.42731 | 40918 ft | 426 kts | 162° |
| 2026-04-21 23:17 | 43.42157 | -92.39678 | 40921 ft | 431 kts | 162° |
| 2026-04-21 23:18 | 43.36594 | -92.36619 | 40915 ft | 435 kts | 162° |
| 2026-04-21 23:18 | 43.30948 | -92.33521 | 40916 ft | 439 kts | 162° |
| 2026-04-21 23:19 | 43.26176 | -92.30906 | 40914 ft | 442 kts | 162° |
| 2026-04-21 23:19 | 43.20471 | -92.27786 | 40913 ft | 445 kts | 162° |
| 2026-04-21 23:20 | 43.14701 | -92.24638 | 40909 ft | 448 kts | 161° |
| 2026-04-21 23:20 | 43.09239 | -92.20408 | 40908 ft | 456 kts | 143° |
| 2026-04-21 23:21 | 43.04738 | -92.14270 | 40903 ft | 459 kts | 126° |
| 2026-04-21 23:21 | 43.01596 | -92.06725 | 40911 ft | 457 kts | 108° |
| 2026-04-21 23:22 | 43.00041 | -91.98377 | 40910 ft | 450 kts | 91° |
| 2026-04-21 23:22 | 42.99393 | -91.89855 | 40905 ft | 452 kts | 91° |
| 2026-04-21 23:23 | 42.98727 | -91.81300 | 40911 ft | 453 kts | 91° |
| 2026-04-21 23:23 | 42.98065 | -91.72777 | 40914 ft | 455 kts | 91° |
| 2026-04-21 23:24 | 42.97386 | -91.64173 | 40913 ft | 456 kts | 91° |
| 2026-04-21 23:24 | 42.96700 | -91.55544 | 40906 ft | 458 kts | 91° |
| 2026-04-21 23:25 | 42.96004 | -91.46880 | 40910 ft | 459 kts | 91° |
| 2026-04-21 23:25 | 42.95300 | -91.38208 | 40908 ft | 460 kts | 91° |
| 2026-04-21 23:26 | 42.94591 | -91.29518 | 40909 ft | 461 kts | 91° |
| 2026-04-21 23:26 | 42.93871 | -91.20821 | 40905 ft | 462 kts | 91° |
| 2026-04-21 23:27 | 42.93143 | -91.12095 | 40904 ft | 462 kts | 91° |
| 2026-04-21 23:27 | 42.92413 | -91.03424 | 40904 ft | 462 kts | 91° |
| 2026-04-21 23:28 | 42.91674 | -90.94711 | 40912 ft | 461 kts | 91° |
| 2026-04-21 23:28 | 42.90931 | -90.86064 | 40909 ft | 461 kts | 91° |
| 2026-04-21 23:29 | 42.90180 | -90.77369 | 40915 ft | 461 kts | 91° |
| 2026-04-21 23:29 | 42.89423 | -90.68699 | 40918 ft | 461 kts | 91° |
| 2026-04-21 23:30 | 42.88659 | -90.60020 | 40927 ft | 460 kts | 91° |
| 2026-04-21 23:30 | 42.87888 | -90.51354 | 40932 ft | 460 kts | 91° |
| 2026-04-21 23:31 | 42.87117 | -90.42747 | 40925 ft | 460 kts | 91° |
| 2026-04-21 23:31 | 42.86334 | -90.34104 | 40932 ft | 459 kts | 91° |
| 2026-04-21 23:32 | 42.85545 | -90.25468 | 40922 ft | 459 kts | 91° |
| 2026-04-21 23:32 | 42.84751 | -90.16826 | 40923 ft | 459 kts | 91° |
| 2026-04-21 23:33 | 42.83675 | -90.08229 | 40905 ft | 464 kts | 101° |
| 2026-04-21 23:33 | 42.81462 | -89.99921 | 40768 ft | 467 kts | 106° |
| 2026-04-21 23:34 | 42.80336 | -89.95852 | 40890 ft | 463 kts | 105° |
| 2026-04-21 23:34 | 42.79200 | -89.91748 | 40899 ft | 463 kts | 105° |
| 2026-04-21 23:34 | 42.76905 | -89.83566 | 40914 ft | 462 kts | 106° |
| 2026-04-21 23:35 | 42.74616 | -89.75395 | 40925 ft | 462 kts | 105° |
| 2026-04-21 23:35 | 42.72320 | -89.67240 | 40932 ft | 461 kts | 106° |
| 2026-04-21 23:36 | 42.70022 | -89.59096 | 40931 ft | 461 kts | 106° |
| 2026-04-21 23:36 | 42.67719 | -89.50965 | 40936 ft | 460 kts | 106° |
| 2026-04-21 23:37 | 42.65422 | -89.42884 | 40933 ft | 460 kts | 106° |
| 2026-04-21 23:37 | 42.63114 | -89.34786 | 40929 ft | 460 kts | 106° |
| 2026-04-21 23:38 | 42.60815 | -89.26748 | 40925 ft | 459 kts | 106° |
| 2026-04-21 23:38 | 42.58497 | -89.18668 | 40922 ft | 459 kts | 106° |
| 2026-04-21 23:39 | 42.56175 | -89.10600 | 40928 ft | 459 kts | 107° |
| 2026-04-21 23:39 | 42.53846 | -89.02534 | 40925 ft | 459 kts | 107° |
| 2026-04-21 23:40 | 42.51513 | -88.94480 | 40926 ft | 458 kts | 107° |
| 2026-04-21 23:40 | 42.49174 | -88.86429 | 40931 ft | 458 kts | 107° |
| 2026-04-21 23:41 | 42.46845 | -88.78437 | 40928 ft | 458 kts | 107° |
| 2026-04-21 23:41 | 42.44495 | -88.70402 | 40931 ft | 458 kts | 107° |
| 2026-04-21 23:42 | 42.42145 | -88.62388 | 40935 ft | 458 kts | 107° |
| 2026-04-21 23:42 | 42.39785 | -88.54368 | 40930 ft | 458 kts | 108° |
| 2026-04-21 23:43 | 42.37421 | -88.46359 | 40932 ft | 458 kts | 108° |
| 2026-04-21 23:43 | 42.35069 | -88.38414 | 40926 ft | 458 kts | 108° |
| 2026-04-21 23:44 | 42.32691 | -88.30407 | 40925 ft | 458 kts | 108° |
| 2026-04-21 23:44 | 42.30312 | -88.22422 | 40928 ft | 458 kts | 108° |
| 2026-04-21 23:45 | 42.26750 | -88.10508 | 40933 ft | 459 kts | 109° |
| 2026-04-21 23:46 | 42.23955 | -88.02742 | 40942 ft | 463 kts | 121° |
| 2026-04-21 23:46 | 42.19782 | -87.96107 | 40951 ft | 465 kts | 137° |
| 2026-04-21 23:47 | 42.14466 | -87.91141 | 40953 ft | 464 kts | 154° |
| 2026-04-21 23:47 | 42.08514 | -87.87771 | 40948 ft | 463 kts | 160° |
| 2026-04-21 23:48 | 42.02574 | -87.84539 | 40943 ft | 463 kts | 160° |
| 2026-04-21 23:48 | 41.96585 | -87.81308 | 40944 ft | 463 kts | 160° |
| 2026-04-21 23:49 | 41.90599 | -87.78074 | 40942 ft | 463 kts | 160° |
| 2026-04-21 23:49 | 41.84606 | -87.74849 | 40951 ft | 463 kts | 160° |
| 2026-04-21 23:50 | 41.78628 | -87.71636 | 40950 ft | 463 kts | 160° |
| 2026-04-21 23:50 | 41.72647 | -87.68428 | 40949 ft | 463 kts | 160° |
| 2026-04-21 23:51 | 41.66709 | -87.65249 | 40942 ft | 462 kts | 160° |
| 2026-04-21 23:51 | 41.60729 | -87.62055 | 40969 ft | 462 kts | 160° |
| 2026-04-21 23:52 | 41.54755 | -87.58871 | 40969 ft | 462 kts | 160° |
| 2026-04-21 23:52 | 41.48778 | -87.55691 | 40968 ft | 462 kts | 160° |
| 2026-04-21 23:53 | 41.42808 | -87.52520 | 40961 ft | 461 kts | 160° |
| 2026-04-21 23:53 | 41.36848 | -87.49362 | 40958 ft | 461 kts | 160° |
| 2026-04-21 23:54 | 41.30889 | -87.46211 | 40951 ft | 461 kts | 160° |
| 2026-04-21 23:54 | 41.24925 | -87.43062 | 40951 ft | 460 kts | 160° |
| 2026-04-21 23:55 | 41.18968 | -87.39923 | 40961 ft | 460 kts | 161° |
| 2026-04-21 23:55 | 41.13005 | -87.36788 | 40975 ft | 460 kts | 161° |
| 2026-04-21 23:56 | 41.07084 | -87.33680 | 40987 ft | 460 kts | 161° |
| 2026-04-21 23:56 | 41.01133 | -87.30560 | 40996 ft | 459 kts | 161° |
| 2026-04-21 23:57 | 40.95183 | -87.27448 | 40997 ft | 459 kts | 161° |
| 2026-04-21 23:57 | 40.89248 | -87.24350 | 41005 ft | 458 kts | 161° |
| 2026-04-21 23:58 | 40.83308 | -87.21256 | 40994 ft | 458 kts | 161° |
| 2026-04-21 23:58 | 40.77409 | -87.18188 | 40986 ft | 458 kts | 161° |
| 2026-04-21 23:59 | 40.71439 | -87.15102 | 40974 ft | 457 kts | 161° |
| 2026-04-21 23:59 | 40.65554 | -87.12060 | 40967 ft | 457 kts | 161° |
| 2026-04-22 00:00 | 40.60591 | -87.09500 | 40974 ft | 457 kts | 161° |
| 2026-04-22 00:00 | 40.54698 | -87.06370 | 40985 ft | 458 kts | 156° |
| 2026-04-22 00:01 | 40.48037 | -87.02143 | 40992 ft | 457 kts | 157° |
| 2026-04-22 00:01 | 40.42293 | -86.98530 | 40991 ft | 457 kts | 156° |
| 2026-04-22 00:02 | 40.37508 | -86.95510 | 40991 ft | 457 kts | 157° |
| 2026-04-22 00:02 | 40.31768 | -86.91909 | 40989 ft | 457 kts | 157° |
| 2026-04-22 00:03 | 40.26036 | -86.88309 | 40982 ft | 457 kts | 157° |
| 2026-04-22 00:03 | 40.20302 | -86.84723 | 40988 ft | 457 kts | 157° |
| 2026-04-22 00:04 | 40.14561 | -86.81135 | 41019 ft | 456 kts | 157° |
| 2026-04-22 00:04 | 40.08828 | -86.77559 | 41022 ft | 456 kts | 157° |
| 2026-04-22 00:05 | 40.03130 | -86.74012 | 41022 ft | 456 kts | 157° |
| 2026-04-22 00:05 | 39.97395 | -86.70449 | 41020 ft | 456 kts | 157° |
| 2026-04-22 00:06 | 39.91670 | -86.66900 | 41016 ft | 456 kts | 157° |
| 2026-04-22 00:06 | 39.85938 | -86.63351 | 41014 ft | 455 kts | 157° |
| 2026-04-22 00:07 | 39.80208 | -86.59811 | 41019 ft | 455 kts | 158° |
| 2026-04-22 00:07 | 39.74488 | -86.56285 | 41021 ft | 455 kts | 158° |
| 2026-04-22 00:08 | 39.68800 | -86.52784 | 41024 ft | 455 kts | 158° |
| 2026-04-22 00:08 | 39.63080 | -86.49269 | 41028 ft | 454 kts | 158° |
| 2026-04-22 00:09 | 39.57351 | -86.45756 | 41025 ft | 454 kts | 158° |
| 2026-04-22 00:09 | 39.51641 | -86.42262 | 41027 ft | 454 kts | 158° |
| 2026-04-22 00:10 | 39.45926 | -86.38770 | 41033 ft | 453 kts | 158° |
| 2026-04-22 00:10 | 39.40244 | -86.35305 | 41045 ft | 453 kts | 158° |
| 2026-04-22 00:11 | 39.34525 | -86.31823 | 41042 ft | 453 kts | 158° |
| 2026-04-22 00:11 | 39.28808 | -86.28348 | 41046 ft | 453 kts | 158° |
| 2026-04-22 00:12 | 39.23136 | -86.24908 | 41047 ft | 453 kts | 159° |
| 2026-04-22 00:12 | 39.17430 | -86.21453 | 41055 ft | 453 kts | 159° |
| 2026-04-22 00:13 | 39.11703 | -86.17992 | 41059 ft | 453 kts | 159° |
| 2026-04-22 00:13 | 39.05995 | -86.14549 | 41058 ft | 453 kts | 159° |
| 2026-04-22 00:14 | 39.00287 | -86.11112 | 41059 ft | 453 kts | 159° |
| 2026-04-22 00:14 | 38.94570 | -86.07673 | 41067 ft | 453 kts | 159° |
| 2026-04-22 00:15 | 38.88896 | -86.04270 | 41069 ft | 452 kts | 159° |
| 2026-04-22 00:15 | 38.83193 | -86.00854 | 41073 ft | 452 kts | 159° |
| 2026-04-22 00:16 | 38.77484 | -85.97441 | 41072 ft | 452 kts | 159° |
| 2026-04-22 00:16 | 38.71779 | -85.94034 | 41078 ft | 452 kts | 159° |
| 2026-04-22 00:17 | 38.66074 | -85.90636 | 41079 ft | 452 kts | 159° |
| 2026-04-22 00:17 | 38.60399 | -85.87260 | 41083 ft | 452 kts | 159° |
| 2026-04-22 00:18 | 38.54686 | -85.83869 | 41084 ft | 452 kts | 159° |
| 2026-04-22 00:18 | 38.48979 | -85.80486 | 41085 ft | 452 kts | 159° |
| 2026-04-22 00:19 | 38.43265 | -85.77105 | 41083 ft | 452 kts | 160° |
| 2026-04-22 00:19 | 38.37594 | -85.73757 | 41081 ft | 451 kts | 160° |
| 2026-04-22 00:20 | 38.31891 | -85.70394 | 41082 ft | 451 kts | 160° |
| 2026-04-22 00:20 | 38.26182 | -85.67034 | 41101 ft | 451 kts | 160° |
| 2026-04-22 00:21 | 38.20505 | -85.63698 | 41101 ft | 451 kts | 160° |
| 2026-04-22 00:21 | 38.14805 | -85.60355 | 41103 ft | 451 kts | 160° |
| 2026-04-22 00:22 | 38.09159 | -85.56809 | 41104 ft | 455 kts | 152° |
| 2026-04-22 00:22 | 38.03785 | -85.52546 | 41115 ft | 456 kts | 152° |
| 2026-04-22 00:23 | 37.98399 | -85.48299 | 41130 ft | 456 kts | 152° |
| 2026-04-22 00:23 | 37.93043 | -85.44069 | 41127 ft | 456 kts | 153° |
| 2026-04-22 00:24 | 37.87657 | -85.39833 | 41129 ft | 456 kts | 153° |
| 2026-04-22 00:24 | 37.82276 | -85.35602 | 41131 ft | 455 kts | 153° |
| 2026-04-22 00:25 | 37.76881 | -85.31372 | 41135 ft | 455 kts | 153° |
| 2026-04-22 00:25 | 37.71488 | -85.27146 | 41138 ft | 455 kts | 153° |
| 2026-04-22 00:26 | 37.66094 | -85.22929 | 41145 ft | 455 kts | 153° |
| 2026-04-22 00:26 | 37.60737 | -85.18749 | 41176 ft | 455 kts | 153° |
| 2026-04-22 00:27 | 37.55351 | -85.14552 | 41182 ft | 455 kts | 153° |
| 2026-04-22 00:27 | 37.49954 | -85.10354 | 41193 ft | 455 kts | 153° |
| 2026-04-22 00:28 | 37.44551 | -85.06160 | 41193 ft | 455 kts | 153° |
| 2026-04-22 00:28 | 37.39152 | -85.01975 | 41192 ft | 455 kts | 153° |
| 2026-04-22 00:29 | 37.33760 | -84.97803 | 41194 ft | 455 kts | 153° |
| 2026-04-22 00:29 | 37.28367 | -84.93638 | 41190 ft | 455 kts | 153° |
| 2026-04-22 00:30 | 37.22973 | -84.89478 | 41187 ft | 455 kts | 153° |
| 2026-04-22 00:30 | 37.17574 | -84.85323 | 41186 ft | 455 kts | 154° |
| 2026-04-22 00:31 | 37.12176 | -84.81173 | 41184 ft | 455 kts | 154° |
| 2026-04-22 00:31 | 37.06814 | -84.77061 | 41177 ft | 455 kts | 154° |
| 2026-04-22 00:32 | 37.01407 | -84.72918 | 41174 ft | 454 kts | 154° |
| 2026-04-22 00:32 | 36.96007 | -84.68791 | 41175 ft | 454 kts | 154° |
| 2026-04-22 00:33 | 36.90601 | -84.64664 | 41186 ft | 454 kts | 154° |
| 2026-04-22 00:33 | 36.85234 | -84.60575 | 41191 ft | 454 kts | 154° |
| 2026-04-22 00:34 | 36.79844 | -84.56473 | 41220 ft | 454 kts | 154° |
| 2026-04-22 00:34 | 36.74430 | -84.52363 | 41221 ft | 454 kts | 154° |
| 2026-04-22 00:35 | 36.69021 | -84.48261 | 41224 ft | 455 kts | 154° |
| 2026-04-22 00:35 | 36.63597 | -84.44157 | 41225 ft | 455 kts | 154° |
| 2026-04-22 00:36 | 36.58218 | -84.40092 | 41227 ft | 455 kts | 154° |
| 2026-04-22 00:36 | 36.52794 | -84.35999 | 41227 ft | 455 kts | 154° |
| 2026-04-22 00:37 | 36.47380 | -84.31923 | 41215 ft | 455 kts | 154° |
| 2026-04-22 00:37 | 36.41966 | -84.27851 | 41213 ft | 455 kts | 154° |
| 2026-04-22 00:38 | 36.36550 | -84.23785 | 41206 ft | 455 kts | 154° |
| 2026-04-22 00:38 | 36.31117 | -84.19715 | 41205 ft | 456 kts | 154° |
| 2026-04-22 00:39 | 36.25720 | -84.15676 | 41200 ft | 456 kts | 154° |
| 2026-04-22 00:39 | 36.20286 | -84.11617 | 41209 ft | 456 kts | 154° |
| 2026-04-22 00:40 | 36.14853 | -84.07565 | 41214 ft | 456 kts | 154° |
| 2026-04-22 00:40 | 36.09419 | -84.03519 | 41224 ft | 456 kts | 154° |
| 2026-04-22 00:41 | 36.03976 | -83.99473 | 41222 ft | 456 kts | 154° |
| 2026-04-22 00:41 | 35.98562 | -83.95455 | 41222 ft | 456 kts | 154° |
| 2026-04-22 00:42 | 35.93275 | -83.91065 | 41223 ft | 462 kts | 144° |
| 2026-04-22 00:42 | 35.88888 | -83.85186 | 41221 ft | 471 kts | 128° |
| 2026-04-22 00:43 | 35.85616 | -83.78158 | 41228 ft | 473 kts | 120° |
| 2026-04-22 00:43 | 35.82516 | -83.70998 | 41241 ft | 473 kts | 120° |
| 2026-04-22 00:44 | 35.79436 | -83.63867 | 41237 ft | 474 kts | 120° |
| 2026-04-22 00:44 | 35.76326 | -83.56703 | 41237 ft | 474 kts | 120° |
| 2026-04-22 00:45 | 35.73742 | -83.50753 | 41240 ft | 474 kts | 120° |
| 2026-04-22 00:45 | 35.70605 | -83.43551 | 41239 ft | 474 kts | 120° |
| 2026-04-22 00:46 | 35.67502 | -83.36439 | 41246 ft | 475 kts | 120° |
| 2026-04-22 00:46 | 35.64363 | -83.29260 | 41256 ft | 476 kts | 120° |
| 2026-04-22 00:47 | 35.61235 | -83.22117 | 41064 ft | 471 kts | 120° |
| 2026-04-22 00:47 | 35.59673 | -83.18563 | 40477 ft | 473 kts | 121° |
| 2026-04-22 00:47 | 35.58108 | -83.15001 | 39955 ft | 472 kts | 121° |
| 2026-04-22 00:47 | 35.56550 | -83.11456 | 39438 ft | 471 kts | 121° |
| 2026-04-22 00:48 | 35.54993 | -83.07922 | 38918 ft | 470 kts | 121° |
| 2026-04-22 00:48 | 35.53458 | -83.04439 | 38234 ft | 469 kts | 121° |
| 2026-04-22 00:48 | 35.51900 | -83.00906 | 37441 ft | 471 kts | 121° |
| 2026-04-22 00:48 | 35.50331 | -82.97359 | 36621 ft | 474 kts | 121° |
| 2026-04-22 00:49 | 35.48765 | -82.93815 | 36307 ft | 467 kts | 120° |
| 2026-04-22 00:49 | 35.45686 | -82.86859 | 36309 ft | 464 kts | 121° |
| 2026-04-22 00:50 | 35.42597 | -82.79902 | 36313 ft | 466 kts | 121° |
| 2026-04-22 00:50 | 35.39484 | -82.72896 | 36316 ft | 468 kts | 121° |
| 2026-04-22 00:51 | 35.36351 | -82.65867 | 36315 ft | 470 kts | 121° |
| 2026-04-22 00:51 | 35.33224 | -82.58861 | 36318 ft | 471 kts | 121° |
| 2026-04-22 00:52 | 35.30064 | -82.51803 | 36319 ft | 472 kts | 121° |
| 2026-04-22 00:52 | 35.26914 | -82.44778 | 36313 ft | 473 kts | 121° |
| 2026-04-22 00:53 | 35.23721 | -82.37671 | 36312 ft | 474 kts | 121° |
| 2026-04-22 00:53 | 35.20561 | -82.30650 | 36305 ft | 474 kts | 121° |
| 2026-04-22 00:54 | 35.17379 | -82.23597 | 36301 ft | 474 kts | 121° |
| 2026-04-22 00:54 | 35.14190 | -82.16543 | 36302 ft | 474 kts | 121° |
| 2026-04-22 00:55 | 35.10992 | -82.09486 | 36300 ft | 474 kts | 121° |
| 2026-04-22 00:55 | 35.06193 | -81.98915 | 36304 ft | 475 kts | 121° |
| 2026-04-22 00:56 | 35.02995 | -81.91895 | 36307 ft | 475 kts | 121° |
| 2026-04-22 00:56 | 34.99821 | -81.84819 | 36298 ft | 476 kts | 116° |
| 2026-04-22 00:57 | 34.98002 | -81.77056 | 36295 ft | 477 kts | 95° |
| 2026-04-22 00:57 | 34.98272 | -81.69092 | 36293 ft | 470 kts | 74° |
| 2026-04-22 00:58 | 35.00044 | -81.61454 | 36296 ft | 467 kts | 69° |
| 2026-04-22 00:58 | 35.01435 | -81.53731 | 36256 ft | 469 kts | 79° |
| 2026-04-22 00:59 | 35.01593 | -81.49746 | 35560 ft | 475 kts | 89° |
| 2026-04-22 00:59 | 35.01274 | -81.45720 | 34878 ft | 478 kts | 97° |
| 2026-04-22 00:59 | 35.00738 | -81.41696 | 34215 ft | 479 kts | 98° |
| 2026-04-22 00:59 | 35.00249 | -81.37673 | 33483 ft | 477 kts | 94° |
| 2026-04-22 01:00 | 35.00063 | -81.33692 | 33324 ft | 460 kts | 89° |
| 2026-04-22 01:00 | 34.99992 | -81.29861 | 32941 ft | 446 kts | 89° |
| 2026-04-22 01:00 | 34.99802 | -81.26089 | 32281 ft | 443 kts | 93° |
| 2026-04-22 01:00 | 34.99515 | -81.22372 | 31711 ft | 436 kts | 93° |
| 2026-04-22 01:01 | 34.99283 | -81.18715 | 31137 ft | 430 kts | 91° |
| 2026-04-22 01:01 | 34.99105 | -81.15094 | 30571 ft | 425 kts | 91° |
| 2026-04-22 01:01 | 34.98917 | -81.11564 | 29955 ft | 420 kts | 92° |
| 2026-04-22 01:01 | 34.98693 | -81.07986 | 29303 ft | 415 kts | 92° |
| 2026-04-22 01:02 | 34.98482 | -81.04544 | 28682 ft | 410 kts | 92° |
| 2026-04-22 01:02 | 34.98283 | -81.01085 | 28067 ft | 406 kts | 91° |
| 2026-04-22 01:02 | 34.98083 | -80.97664 | 27474 ft | 402 kts | 92° |
| 2026-04-22 01:02 | 34.97881 | -80.94276 | 26891 ft | 398 kts | 91° |
| 2026-04-22 01:03 | 34.97676 | -80.90927 | 26323 ft | 394 kts | 91° |
| 2026-04-22 01:03 | 34.97479 | -80.87605 | 25764 ft | 390 kts | 91° |
| 2026-04-22 01:03 | 34.97279 | -80.84320 | 25233 ft | 387 kts | 91° |
| 2026-04-22 01:03 | 34.97084 | -80.81062 | 24710 ft | 383 kts | 91° |
| 2026-04-22 01:04 | 34.96883 | -80.77832 | 24207 ft | 380 kts | 91° |
| 2026-04-22 01:04 | 34.96692 | -80.74675 | 23694 ft | 376 kts | 91° |
| 2026-04-22 01:04 | 34.96496 | -80.71509 | 23118 ft | 373 kts | 91° |
| 2026-04-22 01:04 | 34.96303 | -80.68367 | 22565 ft | 369 kts | 91° |
| 2026-04-22 01:05 | 34.96108 | -80.65260 | 22030 ft | 365 kts | 91° |
| 2026-04-22 01:05 | 34.95919 | -80.62183 | 21515 ft | 362 kts | 91° |
| 2026-04-22 01:05 | 34.95726 | -80.59143 | 21006 ft | 358 kts | 91° |
| 2026-04-22 01:05 | 34.95539 | -80.56126 | 20507 ft | 355 kts | 91° |
| 2026-04-22 01:06 | 34.95349 | -80.53137 | 20024 ft | 352 kts | 91° |
| 2026-04-22 01:06 | 34.95161 | -80.50176 | 19482 ft | 347 kts | 91° |
| 2026-04-22 01:06 | 34.94977 | -80.47244 | 18807 ft | 345 kts | 91° |
| 2026-04-22 01:06 | 34.94791 | -80.44349 | 18128 ft | 341 kts | 91° |
| 2026-04-22 01:07 | 34.94607 | -80.41487 | 17445 ft | 336 kts | 91° |
| 2026-04-22 01:07 | 34.94426 | -80.38671 | 16780 ft | 331 kts | 90° |
| 2026-04-22 01:07 | 34.94246 | -80.35884 | 16129 ft | 327 kts | 91° |
| 2026-04-22 01:07 | 34.94072 | -80.33174 | 15505 ft | 323 kts | 90° |
| 2026-04-22 01:08 | 34.93894 | -80.30462 | 14892 ft | 319 kts | 91° |
| 2026-04-22 01:08 | 34.93721 | -80.27785 | 14291 ft | 314 kts | 91° |
| 2026-04-22 01:08 | 34.93546 | -80.25143 | 13647 ft | 310 kts | 91° |
| 2026-04-22 01:08 | 34.93378 | -80.22533 | 12994 ft | 306 kts | 91° |
| 2026-04-22 01:09 | 34.93206 | -80.19960 | 12349 ft | 303 kts | 91° |
| 2026-04-22 01:09 | 34.93040 | -80.17421 | 11861 ft | 295 kts | 91° |
| 2026-04-22 01:09 | 34.92876 | -80.14985 | 11509 ft | 290 kts | 91° |
| 2026-04-22 01:09 | 34.92717 | -80.12534 | 11143 ft | 290 kts | 91° |
| 2026-04-22 01:10 | 34.92551 | -80.10075 | 10773 ft | 289 kts | 91° |
| 2026-04-22 01:10 | 34.92388 | -80.07636 | 10409 ft | 289 kts | 92° |
| 2026-04-22 01:10 | 34.92226 | -80.05201 | 10038 ft | 287 kts | 91° |
| 2026-04-22 01:10 | 34.92061 | -80.02779 | 9642 ft | 286 kts | 92° |
| 2026-04-22 01:11 | 34.91901 | -80.00362 | 9256 ft | 285 kts | 92° |
| 2026-04-22 01:11 | 34.91734 | -79.97954 | 8872 ft | 284 kts | 92° |
| 2026-04-22 01:11 | 34.91575 | -79.95556 | 8496 ft | 284 kts | 92° |
| 2026-04-22 01:11 | 34.91409 | -79.93165 | 8133 ft | 282 kts | 92° |
| 2026-04-22 01:12 | 34.91250 | -79.90783 | 7771 ft | 281 kts | 92° |
| 2026-04-22 01:12 | 34.91086 | -79.88437 | 7415 ft | 280 kts | 92° |
| 2026-04-22 01:12 | 34.90925 | -79.86079 | 7062 ft | 279 kts | 93° |
| 2026-04-22 01:12 | 34.90764 | -79.83714 | 6709 ft | 279 kts | 92° |
| 2026-04-22 01:13 | 34.90543 | -79.81374 | 6333 ft | 274 kts | 102° |
| 2026-04-22 01:13 | 34.89646 | -79.79400 | 5978 ft | 264 kts | 131° |
| 2026-04-22 01:13 | 34.88217 | -79.78118 | 5662 ft | 251 kts | 159° |
| 2026-04-22 01:13 | 34.86609 | -79.77384 | 5351 ft | 243 kts | 162° |
| 2026-04-22 01:14 | 34.85040 | -79.76700 | 5053 ft | 235 kts | 163° |
| 2026-04-22 01:14 | 34.83510 | -79.76048 | 4743 ft | 230 kts | 163° |
| 2026-04-22 01:14 | 34.82046 | -79.75413 | 4450 ft | 216 kts | 163° |
| 2026-04-22 01:14 | 34.80707 | -79.74819 | 4204 ft | 192 kts | 163° |
| 2026-04-22 01:15 | 34.79494 | -79.74422 | 3954 ft | 170 kts | 181° |
| 2026-04-22 01:15 | 34.78413 | -79.74676 | 3738 ft | 152 kts | 204° |
| 2026-04-22 01:15 | 34.77607 | -79.75345 | 3545 ft | 132 kts | 225° |
| 2026-04-22 01:15 | 34.77109 | -79.76209 | 3370 ft | 121 kts | 244° |
| 2026-04-22 01:16 | 34.76825 | -79.77149 | 3203 ft | 117 kts | 246° |
| 2026-04-22 01:16 | 34.76541 | -79.78086 | 3056 ft | 119 kts | 248° |
| 2026-04-22 01:16 | 34.76256 | -79.79033 | 2905 ft | 120 kts | 246° |
| 2026-04-22 01:16 | 34.75976 | -79.79995 | 2750 ft | 121 kts | 246° |
| 2026-04-22 01:17 | 34.75683 | -79.80964 | 2578 ft | 123 kts | 247° |
| 2026-04-22 01:17 | 34.75390 | -79.81941 | 2414 ft | 123 kts | 246° |
| 2026-04-22 01:17 | 34.75101 | -79.82928 | 2251 ft | 124 kts | 245° |
| 2026-04-22 01:17 | 34.74801 | -79.83924 | 2087 ft | 127 kts | 246° |
| 2026-04-22 01:18 | 34.74505 | -79.84922 | 1921 ft | 122 kts | 245° |
| 2026-04-22 01:18 | 34.74226 | -79.85870 | 1755 ft | 116 kts | 245° |
| 2026-04-22 01:18 | 34.73956 | -79.86767 | 1597 ft | 110 kts | 245° |
| 2026-04-22 01:18 | 34.73697 | -79.87638 | 1442 ft | 108 kts | 244° |
| 2026-04-22 01:19 | 34.73442 | -79.88494 | 1300 ft | 107 kts | 244° |
| 2026-04-22 01:19 | 34.73187 | -79.89344 | 1157 ft | 107 kts | 244° |
| 2026-04-22 01:19 | 34.72937 | -79.90205 | 990 ft | 109 kts | 247° |
| 2026-04-22 01:19 | 34.72672 | -79.91063 | 825 ft | 110 kts | 246° |
| 2026-04-22 01:20 | 34.72408 | -79.91941 | 663 ft | 111 kts | 249° |
| 2026-04-22 01:20 | 34.72144 | -79.92829 | 514 ft | 112 kts | 249° |
| 2026-04-22 01:20 | 34.71872 | -79.93707 | 391 ft | 110 kts | 251° |
| 2026-04-22 01:20 | 34.71619 | -79.94582 | 269 ft | 109 kts | 248° |
| 2026-04-22 01:21 | 34.71371 | -79.95411 | 209 ft | 92 kts | 250° |
| 2026-04-22 01:21 | 34.71254 | -79.95804 | 220 ft | 24 kts | 249° |
| 2026-04-22 01:21 | 34.71203 | -79.95974 | 224 ft | 19 kts | 250° |
| 2026-04-22 01:21 | 34.71139 | -79.96018 | 226 ft | 0 kts | 159° |
| 2026-04-22 01:22 | 34.71123 | -79.96023 | 227 ft | 3 kts | 251° |
| 2026-04-22 01:22 | 34.71106 | -79.96076 | 229 ft | 10 kts | 249° |
| 2026-04-22 01:22 | 34.71072 | -79.96138 | 232 ft | 7 kts | 174° |
| 2026-04-22 01:23 | 34.71062 | -79.96135 | 233 ft | 0 kts | 160° |